Time;durP1;ratioP1;P1;durP2;ratioP2;P2;SDS_P1;SDS_P2;PMS_P1;PMS_P2;Temp;Humidity;BMP_temperature;BMP_pressure;BME280_temperature;BME280_humidity;BME280_pressure;Samples;Min_cycle;Max_cycle;Signal;HPM_P1;HPM_P2
2023/07/05 00:00:17;;;;;;;15.50;5.82;;;15.50;99.90;;;;;;5045767;28;20028;-73
2023/07/05 00:02:45;;;;;;;12.45;5.80;;;15.40;99.90;;;;;;5046545;28;20022;-73
2023/07/05 00:05:11;;;;;;;12.90;6.18;;;15.50;99.90;;;;;;5046338;28;20021;-75
2023/07/05 00:07:37;;;;;;;13.50;6.15;;;15.40;99.90;;;;;;5045558;28;20076;-75
2023/07/05 00:10:03;;;;;;;12.68;6.20;;;15.30;99.90;;;;;;5045117;28;20037;-74
2023/07/05 00:12:29;;;;;;;12.43;5.93;;;15.30;99.90;;;;;;5046482;28;20034;-74
2023/07/05 00:14:54;;;;;;;16.08;6.63;;;15.20;99.90;;;;;;5044646;28;20088;-74
2023/07/05 00:17:20;;;;;;;15.48;6.88;;;15.20;99.90;;;;;;5046260;28;20033;-75
2023/07/05 00:19:50;;;;;;;18.13;6.93;;;15.10;99.90;;;;;;5044496;28;20029;-74
2023/07/05 00:22:15;;;;;;;17.10;6.75;;;15.10;99.90;;;;;;5045141;28;20021;-73
2023/07/05 00:24:41;;;;;;;18.02;6.90;;;15.10;99.90;;;;;;5046121;28;20029;-74
2023/07/05 00:27:07;;;;;;;13.90;6.80;;;15.00;99.90;;;;;;5044225;28;20029;-76
2023/07/05 00:29:32;;;;;;;11.98;6.68;;;15.00;99.90;;;;;;5044364;28;20055;-75
2023/07/05 00:31:58;;;;;;;16.48;7.10;;;15.10;99.90;;;;;;5044642;28;20055;-74
2023/07/05 00:34:23;;;;;;;14.27;7.47;;;15.00;99.90;;;;;;5044061;28;20029;-77
2023/07/05 00:36:49;;;;;;;17.20;7.38;;;15.10;99.90;;;;;;5045775;28;20025;-74
2023/07/05 00:39:15;;;;;;;16.13;7.75;;;15.10;99.90;;;;;;5045539;28;20113;-73
2023/07/05 00:41:40;;;;;;;18.58;8.20;;;15.00;99.90;;;;;;5045279;28;20085;-74
2023/07/05 00:44:06;;;;;;;16.98;7.38;;;15.00;99.90;;;;;;5044203;28;20097;-74
2023/07/05 00:46:35;;;;;;;17.30;7.22;;;15.00;99.90;;;;;;5044122;28;20167;-74
2023/07/05 00:49:05;;;;;;;19.38;7.30;;;15.00;99.90;;;;;;5043848;28;20037;-75
2023/07/05 00:51:45;;;;;;;15.70;8.38;;;15.10;99.90;;;;;;5044415;28;20076;-75
2023/07/05 00:54:12;;;;;;;18.60;8.32;;;15.00;99.90;;;;;;5045469;28;20468;-74
2023/07/05 00:56:59;;;;;;;19.13;8.43;;;15.00;99.90;;;;;;5045010;28;20079;-74
2023/07/05 00:59:28;;;;;;;17.30;8.50;;;15.00;99.90;;;;;;5044427;28;20029;-74
2023/07/05 01:01:53;;;;;;;16.92;7.95;;;14.90;99.90;;;;;;5044815;28;20021;-74
2023/07/05 01:04:19;;;;;;;15.93;8.55;;;14.90;99.90;;;;;;5044119;28;20179;-74
2023/07/05 01:06:47;;;;;;;21.58;9.05;;;15.00;99.90;;;;;;5045244;28;20037;-75
2023/07/05 01:09:12;;;;;;;15.38;9.00;;;14.90;99.90;;;;;;5044694;28;20043;-74
2023/07/05 01:11:51;;;;;;;18.42;8.50;;;15.00;99.90;;;;;;5044982;28;20053;-71
2023/07/05 01:14:28;;;;;;;20.65;8.85;;;15.00;99.90;;;;;;5043750;28;20025;-74
2023/07/05 01:17:10;;;;;;;17.10;8.43;;;15.00;99.90;;;;;;5043660;28;20022;-73
2023/07/05 01:19:47;;;;;;;18.83;9.50;;;14.90;99.90;;;;;;5044674;28;20025;-74
2023/07/05 01:22:26;;;;;;;20.25;9.63;;;15.00;99.90;;;;;;5044835;28;20026;-73
2023/07/05 01:25:30;;;;;;;21.08;9.57;;;15.00;99.90;;;;;;5043617;28;20036;-75
2023/07/05 01:28:11;;;;;;;22.25;10.05;;;15.00;99.90;;;;;;5043436;28;20040;-76
2023/07/05 01:30:57;;;;;;;18.27;9.35;;;15.00;99.90;;;;;;5044382;28;20033;-73
2023/07/05 01:33:33;;;;;;;17.65;9.38;;;14.90;99.90;;;;;;5044950;28;20022;-75
2023/07/05 01:35:58;;;;;;;13.27;8.52;;;14.90;99.90;;;;;;5042855;28;20029;-74
2023/07/05 01:38:24;;;;;;;21.45;9.35;;;15.00;99.90;;;;;;5044488;28;20486;-75
2023/07/05 01:41:00;;;;;;;15.70;8.88;;;14.90;99.90;;;;;;5045001;28;20496;-73
2023/07/05 01:43:28;;;;;;;18.38;9.20;;;14.90;99.90;;;;;;5044665;28;20075;-73
2023/07/05 01:46:11;;;;;;;18.23;8.65;;;15.00;99.90;;;;;;5044691;28;20029;-73
2023/07/05 01:48:40;;;;;;;17.38;9.20;;;14.90;99.90;;;;;;5044436;28;20069;-75
2023/07/05 01:51:25;;;;;;;17.02;9.45;;;14.90;99.90;;;;;;5043680;28;20028;-74
2023/07/05 01:53:50;;;;;;;;;;;14.90;99.90;;;;;;5045245;28;20017;-75
2023/07/05 01:56:20;;;;;;;17.88;9.35;;;14.90;99.90;;;;;;5042963;28;19915;-74
2023/07/05 01:58:50;;;;;;;19.50;9.68;;;14.90;99.90;;;;;;5044342;28;20057;-71
2023/07/05 02:01:17;;;;;;;18.70;8.80;;;14.90;99.90;;;;;;5044463;28;20504;-73
2023/07/05 02:03:46;;;;;;;16.50;8.65;;;14.90;99.90;;;;;;5044209;28;20044;-71
2023/07/05 02:06:13;;;;;;;20.45;9.25;;;14.90;99.90;;;;;;5044014;28;20033;-73
2023/07/05 02:08:42;;;;;;;19.27;9.18;;;14.90;99.90;;;;;;5044222;28;20159;-75
2023/07/05 02:11:08;;;;;;;17.42;8.93;;;15.00;99.90;;;;;;5044204;28;20022;-72
2023/07/05 02:13:33;;;;;;;15.63;8.07;;;15.00;99.90;;;;;;5044086;28;20033;-73
2023/07/05 02:15:59;;;;;;;18.52;8.85;;;15.10;99.90;;;;;;5043106;28;20029;-71
2023/07/05 02:18:29;;;;;;;19.23;8.75;;;15.00;99.90;;;;;;5044267;28;20034;-74
2023/07/05 02:20:55;;;;;;;20.45;9.35;;;15.00;99.90;;;;;;5042735;28;20048;-75
2023/07/05 02:23:22;;;;;;;18.98;8.10;;;15.00;99.90;;;;;;5044165;28;20025;-71
2023/07/05 02:25:49;;;;;;;18.38;8.25;;;15.00;99.90;;;;;;5043713;28;20034;-72
2023/07/05 02:28:15;;;;;;;15.40;8.25;;;15.00;99.90;;;;;;5043721;28;20042;-72
2023/07/05 02:30:41;;;;;;;24.67;8.90;;;15.00;99.90;;;;;;5044111;28;20045;-73
2023/07/05 02:33:06;;;;;;;16.90;10.00;;;15.10;99.90;;;;;;5043659;28;20076;-69
2023/07/05 02:35:36;;;;;;;20.85;9.68;;;15.10;99.90;;;;;;5043753;28;20104;-68
2023/07/05 02:38:03;;;;;;;24.98;11.30;;;15.00;99.90;;;;;;5043729;28;20026;-68
2023/07/05 02:40:28;;;;;;;16.65;8.98;;;15.00;99.90;;;;;;5043146;28;20059;-68
2023/07/05 02:42:54;;;;;;;20.70;10.15;;;14.80;99.90;;;;;;5044143;28;20057;-68
2023/07/05 02:45:20;;;;;;;27.67;9.82;;;14.90;99.90;;;;;;5044677;28;20029;-69
2023/07/05 02:47:45;;;;;;;19.33;11.15;;;14.80;99.90;;;;;;5047451;28;20033;-70
2023/07/05 02:50:14;;;;;;;25.38;10.98;;;14.70;99.90;;;;;;5047760;28;20041;-70
2023/07/05 02:52:40;;;;;;;21.88;10.18;;;14.70;99.90;;;;;;5047214;28;20498;-72
2023/07/05 02:55:06;;;;;;;22.15;11.90;;;14.60;99.90;;;;;;5045491;28;20032;-71
2023/07/05 02:57:32;;;;;;;23.08;11.40;;;14.60;99.90;;;;;;5047653;28;20029;-69
2023/07/05 02:59:57;;;;;;;21.88;11.20;;;14.60;99.90;;;;;;5047752;28;20028;-70
2023/07/05 03:02:23;;;;;;;21.25;11.50;;;14.60;99.90;;;;;;5047464;28;20474;-69
2023/07/05 03:04:48;;;;;;;26.00;12.10;;;14.50;99.90;;;;;;5047910;28;20029;-69
2023/07/05 03:07:14;;;;;;;22.65;11.18;;;14.60;99.90;;;;;;5046117;28;20025;-70
2023/07/05 03:09:40;;;;;;;28.23;12.68;;;14.50;99.90;;;;;;5047149;28;20045;-69
2023/07/05 03:12:06;;;;;;;25.52;12.43;;;14.40;99.90;;;;;;5047234;28;20037;-68
2023/07/05 03:14:31;;;;;;;22.80;12.20;;;14.50;99.90;;;;;;5047192;28;20092;-69
2023/07/05 03:16:57;;;;;;;22.20;11.90;;;14.40;99.90;;;;;;5046934;28;20030;-70
2023/07/05 03:19:22;;;;;;;22.95;11.90;;;14.40;99.90;;;;;;5047323;28;20033;-70
2023/07/05 03:21:48;;;;;;;26.45;13.25;;;14.40;99.90;;;;;;5047327;28;20116;-70
2023/07/05 03:24:14;;;;;;;25.50;12.98;;;14.40;99.90;;;;;;5044886;28;20045;-70
2023/07/05 03:26:39;;;;;;;22.95;12.65;;;14.40;99.90;;;;;;5045450;28;20029;-71
2023/07/05 03:29:05;;;;;;;20.92;12.70;;;14.40;99.90;;;;;;5046729;28;20063;-71
2023/07/05 03:31:31;;;;;;;26.25;12.82;;;14.40;99.90;;;;;;5046858;28;20029;-72
2023/07/05 03:33:56;;;;;;;27.55;11.90;;;14.30;99.90;;;;;;5045735;28;20036;-69
2023/07/05 03:36:22;;;;;;;26.02;13.55;;;14.30;99.90;;;;;;5046706;28;20026;-73
2023/07/05 03:38:51;;;;;;;27.23;12.38;;;14.30;99.90;;;;;;5046915;28;20057;-69
2023/07/05 03:41:19;;;;;;;30.05;13.88;;;14.40;99.90;;;;;;5046958;28;20089;-70
2023/07/05 03:43:48;;;;;;;25.27;12.48;;;14.30;99.90;;;;;;5046567;28;20025;-70
2023/07/05 03:46:15;;;;;;;22.23;12.90;;;14.30;99.90;;;;;;5046805;28;20028;-70
2023/07/05 03:48:43;;;;;;;31.88;13.43;;;14.30;99.90;;;;;;5046649;28;20033;-69
2023/07/05 03:51:13;;;;;;;25.50;13.80;;;14.30;99.90;;;;;;5046441;28;20025;-69
2023/07/05 03:53:39;;;;;;;22.60;12.07;;;14.30;99.90;;;;;;5046637;28;20030;-71
2023/07/05 03:56:07;;;;;;;25.80;13.65;;;14.30;99.90;;;;;;5045192;28;20030;-69
2023/07/05 03:58:33;;;;;;;24.67;13.05;;;14.20;99.90;;;;;;5045333;28;20467;-70
2023/07/05 04:01:14;;;;;;;25.63;13.75;;;14.30;99.90;;;;;;5046955;28;20032;-69
2023/07/05 04:03:40;;;;;;;26.27;13.35;;;14.30;99.90;;;;;;5046306;28;20029;-70
2023/07/05 04:06:06;;;;;;;28.40;14.52;;;14.30;99.90;;;;;;5046252;28;20417;-69
2023/07/05 04:08:31;;;;;;;26.75;13.18;;;14.30;99.90;;;;;;5046274;28;20052;-70
2023/07/05 04:10:57;;;;;;;24.23;13.07;;;14.20;99.90;;;;;;5046209;28;20048;-71
2023/07/05 04:13:22;;;;;;;25.90;13.52;;;14.20;99.90;;;;;;5046498;28;20466;-72
2023/07/05 04:16:02;;;;;;;31.15;15.18;;;14.30;99.90;;;;;;5045077;28;20313;-70
2023/07/05 04:18:29;;;;;;;29.15;13.85;;;14.20;99.90;;;;;;5045956;28;20033;-74
2023/07/05 04:20:54;;;;;;;22.88;12.63;;;14.10;99.90;;;;;;5046161;28;20839;-70
2023/07/05 04:23:20;;;;;;;24.30;12.65;;;14.20;99.90;;;;;;5045931;28;20036;-72
2023/07/05 04:25:46;;;;;;;25.70;13.60;;;14.10;99.90;;;;;;5046134;28;20029;-70
2023/07/05 04:28:12;;;;;;;34.58;15.07;;;14.10;99.90;;;;;;5039776;28;20034;-71
2023/07/05 04:30:37;;;;;;;23.25;13.20;;;14.20;99.90;;;;;;5040238;28;20069;-68
2023/07/05 04:33:03;;;;;;;30.20;14.50;;;14.20;99.90;;;;;;5037951;28;20033;-70
2023/07/05 04:35:29;;;;;;;26.35;13.48;;;14.20;99.90;;;;;;5042962;28;20471;-69
2023/07/05 04:37:55;;;;;;;26.85;14.07;;;14.10;99.90;;;;;;5045646;28;20580;-71
2023/07/05 04:40:21;;;;;;;28.15;12.93;;;14.20;99.90;;;;;;5045410;28;20073;-70
2023/07/05 04:42:47;;;;;;;29.75;13.10;;;14.20;99.90;;;;;;5045873;28;20021;-69
2023/07/05 04:45:12;;;;;;;27.55;13.93;;;14.10;99.90;;;;;;5044295;28;20433;-68
2023/07/05 04:47:38;;;;;;;28.60;13.82;;;14.20;99.90;;;;;;5045406;28;20033;-70
2023/07/05 04:50:04;;;;;;;24.13;13.38;;;14.20;99.90;;;;;;5045595;28;20120;-69
2023/07/05 04:52:30;;;;;;;29.85;14.50;;;14.20;99.90;;;;;;5045030;28;20040;-72
2023/07/05 04:54:55;;;;;;;31.80;15.30;;;14.10;99.90;;;;;;5045007;28;20030;-69
2023/07/05 04:57:21;;;;;;;26.83;13.75;;;14.20;99.90;;;;;;5045079;28;20452;-73
2023/07/05 04:59:51;;;;;;;25.35;15.32;;;14.20;99.90;;;;;;5034884;28;20037;-68
2023/07/05 05:02:17;;;;;;;31.85;15.43;;;14.20;99.90;;;;;;5044993;28;20048;-72
2023/07/05 05:04:43;;;;;;;32.53;15.57;;;14.20;99.90;;;;;;5037714;28;20039;-68
2023/07/05 05:07:09;;;;;;;34.13;16.73;;;14.20;99.90;;;;;;5043443;28;20065;-71
2023/07/05 05:09:34;;;;;;;32.53;16.55;;;14.20;99.90;;;;;;5045160;28;20040;-70
2023/07/05 05:12:00;;;;;;;34.25;17.08;;;14.20;99.90;;;;;;5027351;28;20030;-69
2023/07/05 05:14:25;;;;;;;35.85;17.50;;;14.20;99.90;;;;;;5044965;28;20437;-70
2023/07/05 05:16:51;;;;;;;33.58;18.02;;;14.20;99.90;;;;;;5045324;28;20044;-71
2023/07/05 05:19:16;;;;;;;35.15;17.50;;;14.20;99.90;;;;;;5026840;28;20029;-71
2023/07/05 05:21:42;;;;;;;31.70;17.00;;;14.20;99.90;;;;;;5044819;28;20041;-71
2023/07/05 05:24:07;;;;;;;29.38;14.63;;;14.30;99.90;;;;;;5044975;28;20485;-71
2023/07/05 05:26:33;;;;;;;33.70;15.00;;;14.20;99.90;;;;;;5044565;28;20030;-72
2023/07/05 05:28:59;;;;;;;29.27;15.15;;;14.20;99.90;;;;;;5044793;28;20072;-73
2023/07/05 05:31:24;;;;;;;31.25;15.98;;;14.30;99.90;;;;;;5044869;28;20030;-71
2023/07/05 05:33:50;;;;;;;29.70;16.00;;;14.30;99.90;;;;;;5044338;28;20522;-68
2023/07/05 05:36:15;;;;;;;32.67;17.10;;;14.30;99.90;;;;;;5044719;28;20072;-72
2023/07/05 05:38:41;;;;;;;30.48;16.73;;;14.40;99.90;;;;;;5044612;28;20088;-69
2023/07/05 05:41:09;;;;;;;32.63;16.35;;;14.40;99.90;;;;;;5043954;28;20132;-72
2023/07/05 05:43:35;;;;;;;28.13;17.35;;;14.40;99.90;;;;;;5044510;28;20026;-69
2023/07/05 05:46:03;;;;;;;27.88;17.10;;;14.40;99.90;;;;;;5044371;28;20068;-71
2023/07/05 05:48:28;;;;;;;29.40;16.98;;;14.40;99.90;;;;;;5043978;28;20037;-69
2023/07/05 05:50:54;;;;;;;25.60;15.82;;;14.50;99.90;;;;;;5044800;28;20518;-69
2023/07/05 05:53:20;;;;;;;34.72;17.10;;;14.40;99.90;;;;;;5044569;28;20026;-69
2023/07/05 05:55:45;;;;;;;32.47;15.30;;;14.60;99.90;;;;;;5044398;28;20077;-71
2023/07/05 05:58:11;;;;;;;33.55;16.88;;;14.40;99.90;;;;;;5026668;28;20038;-71
2023/07/05 06:00:38;;;;;;;32.47;15.70;;;14.40;99.90;;;;;;5044028;28;20112;-70
2023/07/05 06:03:03;;;;;;;29.75;17.88;;;14.50;99.90;;;;;;5044082;28;20029;-72
2023/07/05 06:05:29;;;;;;;29.83;15.90;;;14.40;99.90;;;;;;5026628;28;20026;-71
2023/07/05 06:07:55;;;;;;;36.95;17.80;;;14.50;99.90;;;;;;5044307;28;20029;-71
2023/07/05 06:10:24;;;;;;;30.00;18.05;;;14.40;99.90;;;;;;5044367;28;20406;-72
2023/07/05 06:12:50;;;;;;;29.30;17.65;;;14.40;99.90;;;;;;5044452;28;20036;-69
2023/07/05 06:15:16;;;;;;;32.92;17.75;;;14.40;99.90;;;;;;5043825;28;20029;-70
2023/07/05 06:17:42;;;;;;;37.17;19.00;;;14.40;99.90;;;;;;5044138;28;20099;-70
2023/07/05 06:20:10;;;;;;;27.70;15.90;;;14.50;99.90;;;;;;5045234;28;20486;-73
2023/07/05 06:22:36;;;;;;;36.75;17.67;;;14.40;99.90;;;;;;5050927;28;20025;-71
2023/07/05 06:25:02;;;;;;;33.08;17.77;;;14.50;99.90;;;;;;5050811;28;20024;-73
2023/07/05 06:27:28;;;;;;;29.98;17.40;;;14.50;99.90;;;;;;5065997;28;20021;-72
2023/07/05 06:29:53;;;;;;;32.50;17.20;;;14.60;99.90;;;;;;5070577;28;20048;-72
2023/07/05 06:32:19;;;;;;;33.45;17.73;;;14.60;99.90;;;;;;5070903;28;20033;-71
2023/07/05 06:34:45;;;;;;;38.15;18.10;;;14.60;99.90;;;;;;5070494;28;20021;-73
2023/07/05 06:37:11;;;;;;;30.45;15.63;;;14.70;99.90;;;;;;5052320;28;20063;-71
2023/07/05 06:39:37;;;;;;;29.40;16.17;;;14.70;99.90;;;;;;5070370;28;20053;-72
2023/07/05 06:42:03;;;;;;;30.17;16.67;;;14.70;99.90;;;;;;5052292;28;20093;-73
2023/07/05 06:44:28;;;;;;;31.05;16.00;;;14.80;99.90;;;;;;5070812;28;20036;-74
2023/07/05 06:46:54;;;;;;;25.00;16.45;;;14.80;99.90;;;;;;5070859;28;20400;-72
2023/07/05 06:49:20;;;;;;;28.65;16.33;;;14.90;99.90;;;;;;5070406;28;20037;-70
2023/07/05 06:51:46;;;;;;;33.00;16.63;;;14.90;99.90;;;;;;5070808;28;20040;-71
2023/07/05 06:54:12;;;;;;;29.02;16.30;;;14.90;99.90;;;;;;5070551;28;20036;-70
2023/07/05 06:56:37;;;;;;;28.45;15.63;;;15.00;99.90;;;;;;5070244;28;20036;-70
2023/07/05 06:59:03;;;;;;;29.25;16.15;;;15.10;99.90;;;;;;5070311;28;20025;-70
2023/07/05 07:01:29;;;;;;;27.67;16.73;;;15.10;99.90;;;;;;5070642;28;20322;-69
2023/07/05 07:03:54;;;;;;;25.90;15.43;;;15.10;99.90;;;;;;5070342;28;20093;-71
2023/07/05 07:06:20;;;;;;;26.90;15.25;;;15.10;99.90;;;;;;5070631;28;20039;-69
2023/07/05 07:08:49;;;;;;;20.25;11.80;;;15.20;99.90;;;;;;5070140;28;20112;-72
2023/07/05 07:11:14;;;;;;;19.30;11.68;;;15.30;99.90;;;;;;5052318;28;20036;-71
2023/07/05 07:13:41;;;;;;;17.92;10.90;;;15.30;99.90;;;;;;5070068;28;20033;-70
2023/07/05 07:16:14;;;;;;;17.48;10.02;;;15.40;99.90;;;;;;5070289;28;20029;-69
2023/07/05 07:18:48;;;;;;;19.75;9.60;;;15.50;99.90;;;;;;5070572;28;20061;-70
2023/07/05 07:21:16;;;;;;;11.93;6.28;;;15.40;99.90;;;;;;5070499;28;20055;-73
2023/07/05 07:23:43;;;;;;;11.85;6.28;;;15.40;99.90;;;;;;5070005;28;20021;-71
2023/07/05 07:26:11;;;;;;;12.10;6.00;;;15.50;99.90;;;;;;5051919;28;20064;-71
2023/07/05 07:28:37;;;;;;;12.65;6.68;;;15.50;99.90;;;;;;5070043;28;20025;-71
2023/07/05 07:31:14;;;;;;;11.25;5.35;;;15.60;99.90;;;;;;5069472;28;20043;-70
2023/07/05 07:33:40;;;;;;;5.32;3.72;;;15.70;99.90;;;;;;5067255;28;20425;-73
2023/07/05 07:36:15;;;;;;;7.53;3.30;;;15.70;99.90;;;;;;5066917;28;20080;-68
2023/07/05 07:38:41;;;;;;;10.02;4.22;;;15.70;99.90;;;;;;5048923;28;20025;-72
2023/07/05 07:41:22;;;;;;;6.70;3.58;;;15.80;99.90;;;;;;5049032;28;20080;-73
2023/07/05 07:43:53;;;;;;;6.32;3.70;;;15.90;99.90;;;;;;5066968;28;20025;-71
2023/07/05 07:46:23;;;;;;;8.35;3.50;;;15.90;99.90;;;;;;5066802;28;20033;-70
2023/07/05 07:48:51;;;;;;;9.88;4.05;;;15.90;99.90;;;;;;5067023;28;20029;-73
2023/07/05 07:51:18;;;;;;;9.10;3.72;;;15.90;99.90;;;;;;5048767;28;20021;-69
2023/07/05 07:53:44;;;;;;;10.10;4.03;;;16.00;99.90;;;;;;5048592;28;20386;-71
2023/07/05 07:56:14;;;;;;;9.82;4.07;;;15.90;99.90;;;;;;5066848;28;20076;-68
2023/07/05 07:58:41;;;;;;;9.88;3.60;;;16.00;99.90;;;;;;5066438;28;20025;-72
2023/07/05 08:01:34;;;;;;;7.50;3.72;;;16.00;99.90;;;;;;5066619;28;20050;-73
2023/07/05 08:04:03;;;;;;;8.52;3.85;;;16.20;99.90;;;;;;5045935;28;20041;-70
2023/07/05 08:06:41;;;;;;;6.28;3.30;;;16.20;99.90;;;;;;5066407;28;20029;-74
2023/07/05 08:09:13;;;;;;;11.77;3.50;;;16.40;99.90;;;;;;5048138;28;20028;-70
2023/07/05 08:11:41;;;;;;;5.25;3.20;;;16.40;99.90;;;;;;5047770;28;20107;-72
2023/07/05 08:14:08;;;;;;;8.23;2.78;;;16.60;99.90;;;;;;5046097;28;20045;-71
2023/07/05 08:16:34;;;;;;;7.18;3.50;;;16.70;99.90;;;;;;5046443;28;20033;-67
2023/07/05 08:19:00;;;;;;;14.45;3.58;;;16.70;99.90;;;;;;5046007;28;20041;-71
2023/07/05 08:21:26;;;;;;;8.05;3.30;;;16.70;99.90;;;;;;5046380;28;20030;-69
2023/07/05 08:23:51;;;;;;;7.38;3.25;;;16.70;99.90;;;;;;5028542;28;20030;-73
2023/07/05 08:26:17;;;;;;;12.57;3.55;;;16.80;99.90;;;;;;5028060;28;20053;-72
2023/07/05 08:28:43;;;;;;;6.25;3.13;;;16.90;99.90;;;;;;5046053;28;20033;-72
2023/07/05 08:31:09;;;;;;;9.13;4.03;;;17.00;99.90;;;;;;5045651;28;20038;-72
2023/07/05 08:33:36;;;;;;;8.25;3.45;;;16.90;99.90;;;;;;5045862;28;20025;-72
2023/07/05 08:36:14;;;;;;;5.35;3.58;;;16.80;99.90;;;;;;5045872;28;20084;-72
2023/07/05 08:38:42;;;;;;;6.75;3.80;;;16.90;99.90;;;;;;5045384;28;20029;-72
2023/07/05 08:41:36;;;;;;;7.70;3.63;;;17.00;99.90;;;;;;5024124;28;20045;-71
2023/07/05 08:44:11;;;;;;;12.23;3.37;;;17.00;99.90;;;;;;5023615;28;20073;-72
2023/07/05 08:46:38;;;;;;;7.38;3.47;;;17.00;99.90;;;;;;5024765;28;20048;-71
2023/07/05 08:49:12;;;;;;;11.30;4.50;;;17.00;99.90;;;;;;5025185;28;20090;-69
2023/07/05 08:51:40;;;;;;;11.60;4.25;;;17.20;99.90;;;;;;5020973;28;20041;-72
2023/07/05 08:54:11;;;;;;;11.48;4.35;;;17.20;99.90;;;;;;5023129;28;20585;-70
2023/07/05 08:56:42;;;;;;;6.22;3.88;;;17.20;99.90;;;;;;5007359;28;20026;-71
2023/07/05 08:59:23;;;;;;;6.82;4.28;;;17.20;99.90;;;;;;5005783;28;20058;-71
2023/07/05 09:01:54;;;;;;;9.30;4.03;;;17.20;99.90;;;;;;5006195;28;20030;-72
2023/07/05 09:04:34;;;;;;;8.38;4.57;;;17.30;99.90;;;;;;5009989;28;20089;-71
2023/07/05 09:07:15;;;;;;;7.63;4.05;;;17.40;99.90;;;;;;5022345;28;20042;-70
2023/07/05 09:09:51;;;;;;;11.85;4.13;;;17.50;99.90;;;;;;5033791;28;20046;-73
2023/07/05 09:12:34;;;;;;;6.88;3.80;;;17.50;99.90;;;;;;5023851;28;20060;-72
2023/07/05 09:15:25;;;;;;;4.80;2.85;;;17.50;99.90;;;;;;5019427;28;20026;-70
2023/07/05 09:18:17;;;;;;;4.50;2.72;;;17.60;99.90;;;;;;5025786;28;20506;-70
2023/07/05 09:21:01;;;;;;;9.93;3.00;;;17.70;99.90;;;;;;5025038;28;20072;-70
2023/07/05 09:23:38;;;;;;;11.30;2.80;;;17.80;99.90;;;;;;5025349;28;20037;-69
2023/07/05 09:26:37;;;;;;;7.10;2.50;;;17.80;99.90;;;;;;5024409;28;20034;-73
2023/07/05 09:29:33;;;;;;;4.63;2.47;;;17.70;99.90;;;;;;5023828;28;20038;-72
2023/07/05 09:32:11;;;;;;;5.25;2.15;;;17.60;99.90;;;;;;5005502;28;20026;-71
2023/07/05 09:34:42;;;;;;;3.50;1.90;;;17.50;99.90;;;;;;5015217;28;20026;-71
2023/07/05 09:37:15;;;;;;;9.77;2.33;;;17.50;99.90;;;;;;5025193;28;20022;-72
2023/07/05 09:39:47;;;;;;;4.70;2.30;;;17.60;99.90;;;;;;5032201;28;20033;-71
2023/07/05 09:42:21;;;;;;;5.90;2.33;;;17.60;99.90;;;;;;5044414;28;20041;-70
2023/07/05 09:44:47;;;;;;;10.10;2.90;;;17.60;99.90;;;;;;5038956;28;20032;-71
2023/07/05 09:47:12;;;;;;;5.10;2.13;;;17.60;99.90;;;;;;5025067;28;20033;-71
2023/07/05 09:49:38;;;;;;;3.95;1.98;;;17.70;99.90;;;;;;5029932;28;20080;-73
2023/07/05 09:52:11;;;;;;;6.32;2.55;;;17.50;99.90;;;;;;5042697;28;20118;-70
2023/07/05 09:54:37;;;;;;;4.53;2.30;;;17.50;99.90;;;;;;5043706;28;20033;-75
2023/07/05 09:57:06;;;;;;;9.13;2.50;;;17.50;99.90;;;;;;5037487;28;20467;-71
2023/07/05 09:59:34;;;;;;;7.95;2.55;;;17.40;99.90;;;;;;5043994;28;20037;-73
2023/07/05 10:02:14;;;;;;;6.40;2.13;;;17.40;99.90;;;;;;5025866;28;20497;-68
2023/07/05 10:04:49;;;;;;;8.40;2.60;;;17.50;99.90;;;;;;5044118;28;20040;-73
2023/07/05 10:07:24;;;;;;;9.00;2.90;;;17.50;99.90;;;;;;5043679;28;20034;-72
2023/07/05 10:10:07;;;;;;;11.23;2.63;;;17.50;99.90;;;;;;5041169;28;20040;-74
2023/07/05 10:12:39;;;;;;;11.20;2.95;;;17.50;99.90;;;;;;5043590;28;20017;-70
2023/07/05 10:15:23;;;;;;;8.00;2.67;;;17.70;99.90;;;;;;5044198;28;20089;-72
2023/07/05 10:17:51;;;;;;;5.70;2.60;;;17.80;99.90;;;;;;5026683;28;20461;-70
2023/07/05 10:20:47;;;;;;;7.55;2.60;;;17.90;99.90;;;;;;5044395;28;20025;-72
2023/07/05 10:23:21;;;;;;;3.72;2.05;;;17.80;99.90;;;;;;5027200;28;20136;-71
2023/07/05 10:25:47;;;;;;;;;;;17.60;99.90;;;;;;5044918;28;20025;-70
2023/07/05 10:28:17;;;;;;;9.18;2.20;;;17.40;99.90;;;;;;5043651;28;19909;-74
2023/07/05 10:30:55;;;;;;;6.95;2.03;;;17.20;99.90;;;;;;5044457;28;20041;-69
2023/07/05 10:33:35;;;;;;;6.40;2.00;;;17.30;99.90;;;;;;5044094;28;20017;-71
2023/07/05 10:36:03;;;;;;;7.97;2.22;;;17.30;99.90;;;;;;5030018;28;20100;-70
2023/07/05 10:38:32;;;;;;;5.28;1.60;;;17.30;99.90;;;;;;5043503;28;20025;-71
2023/07/05 10:41:18;;;;;;;6.70;2.08;;;17.30;99.90;;;;;;5043457;28;20052;-69
2023/07/05 10:43:52;;;;;;;6.03;2.10;;;17.20;99.90;;;;;;5043621;28;20037;-69
2023/07/05 10:46:22;;;;;;;6.57;2.40;;;17.10;99.90;;;;;;5044123;28;20029;-70
2023/07/05 10:48:49;;;;;;;3.88;1.88;;;16.90;99.90;;;;;;5043869;28;20030;-70
2023/07/05 10:51:26;;;;;;;9.93;2.88;;;16.80;99.90;;;;;;5026003;28;20041;-72
2023/07/05 10:54:21;;;;;;;8.38;2.50;;;16.70;99.90;;;;;;5041735;28;20048;-71
2023/07/05 10:56:48;;;;;;;5.47;2.60;;;16.50;99.90;;;;;;5040192;28;20053;-69
2023/07/05 10:59:26;;;;;;;7.13;2.38;;;16.40;99.90;;;;;;5043898;28;20048;-71
2023/07/05 11:02:01;;;;;;;9.73;2.38;;;16.30;99.90;;;;;;5043679;28;20086;-69
2023/07/05 11:04:30;;;;;;;10.48;2.50;;;16.30;99.90;;;;;;5043358;28;20078;-71
2023/07/05 11:07:06;;;;;;;5.65;2.45;;;16.30;99.90;;;;;;5045207;28;20040;-74
2023/07/05 11:09:35;;;;;;;6.30;2.38;;;16.20;99.90;;;;;;5047534;28;20064;-76
2023/07/05 11:12:05;;;;;;;5.95;2.17;;;16.20;99.90;;;;;;5047409;28;20099;-75
2023/07/05 11:14:31;;;;;;;19.48;2.50;;;16.20;99.90;;;;;;5047740;28;20089;-72
2023/07/05 11:16:58;;;;;;;10.20;2.85;;;16.10;99.90;;;;;;5029749;28;20553;-73
2023/07/05 11:19:29;;;;;;;5.63;2.10;;;16.10;99.90;;;;;;5046960;28;20032;-75
2023/07/05 11:21:55;;;;;;;6.28;1.90;;;16.10;99.90;;;;;;5030883;28;20036;-71
2023/07/05 11:24:39;;;;;;;7.15;2.72;;;16.00;99.90;;;;;;5029543;28;20029;-75
2023/07/05 11:27:30;;;;;;;5.10;2.58;;;15.90;99.90;;;;;;5047150;28;20030;-71
2023/07/05 11:29:58;;;;;;;7.22;2.75;;;15.80;99.90;;;;;;5046712;28;20041;-68
2023/07/05 11:33:02;;;;;;;5.65;2.70;;;15.70;99.90;;;;;;5046796;28;20025;-71
2023/07/05 11:35:45;;;;;;;8.00;1.52;;;15.60;99.90;;;;;;5047048;28;20022;-70
2023/07/05 11:38:36;;;;;;;7.18;2.00;;;15.70;99.90;;;;;;5045184;28;20056;-71
2023/07/05 11:41:04;;;;;;;12.52;2.60;;;15.90;99.90;;;;;;5046433;28;20061;-71
2023/07/05 11:43:37;;;;;;;16.27;3.72;;;16.20;99.90;;;;;;5045603;28;20117;-69
2023/07/05 11:46:23;;;;;;;11.90;2.60;;;16.20;99.90;;;;;;5046598;28;20021;-70
2023/07/05 11:48:49;;;;;;;8.52;2.35;;;16.10;99.90;;;;;;5045288;28;20017;-68
2023/07/05 11:51:26;;;;;;;6.72;2.00;;;16.20;99.90;;;;;;5045121;28;20052;-74
2023/07/05 11:53:54;;;;;;;12.07;2.20;;;16.20;99.90;;;;;;5045651;28;20124;-71
2023/07/05 11:56:21;;;;;;;7.72;2.38;;;16.30;99.90;;;;;;5047203;28;20084;-69
2023/07/05 11:58:50;;;;;;;10.32;2.05;;;16.40;99.90;;;;;;5045158;28;20033;-72
2023/07/05 12:01:24;;;;;;;3.80;1.65;;;16.60;99.90;;;;;;5046346;28;20022;-74
2023/07/05 12:03:55;;;;;;;14.93;1.90;;;16.70;99.90;;;;;;5046710;28;20025;-70
2023/07/05 12:06:25;;;;;;;3.78;1.65;;;16.80;99.90;;;;;;5046439;28;20042;-72
2023/07/05 12:09:03;;;;;;;8.85;1.40;;;16.80;99.90;;;;;;5046971;28;20064;-69
2023/07/05 12:11:39;;;;;;;9.23;2.22;;;16.70;99.90;;;;;;5046509;28;20033;-71
2023/07/05 12:14:10;;;;;;;7.43;1.65;;;16.60;99.90;;;;;;5045413;28;20108;-71
2023/07/05 12:16:35;;;;;;;10.65;1.90;;;16.60;99.90;;;;;;5028757;28;20025;-71
2023/07/05 12:19:05;;;;;;;10.60;1.95;;;16.60;99.90;;;;;;5045180;28;20052;-71
2023/07/05 12:21:34;;;;;;;6.20;1.40;;;16.60;99.90;;;;;;5045967;28;20558;-70
2023/07/05 12:24:04;;;;;;;9.38;1.60;;;16.50;99.90;;;;;;5046108;28;20060;-70
2023/07/05 12:26:31;;;;;;;8.90;1.85;;;16.50;99.90;;;;;;5027945;28;20075;-70
2023/07/05 12:29:02;;;;;;;7.18;1.70;;;16.50;99.90;;;;;;5046013;28;20017;-75
2023/07/05 12:31:29;;;;;;;3.80;1.35;;;16.40;99.90;;;;;;5046084;28;20116;-73
2023/07/05 12:34:00;;;;;;;3.25;1.50;;;16.40;99.90;;;;;;5045929;28;20041;-72
2023/07/05 12:36:26;;;;;;;4.90;1.30;;;16.20;99.90;;;;;;5045921;28;20021;-72
2023/07/05 12:39:06;;;;;;;8.18;1.98;;;16.20;99.90;;;;;;5027995;28;20057;-71
2023/07/05 12:41:32;;;;;;;9.25;1.90;;;16.10;99.90;;;;;;5027722;28;20030;-71
2023/07/05 12:44:00;;;;;;;2.67;1.23;;;16.10;99.90;;;;;;5045848;28;20026;-74
2023/07/05 12:46:28;;;;;;;11.23;2.22;;;16.10;99.90;;;;;;5045993;28;20052;-73
2023/07/05 12:48:54;;;;;;;5.72;1.55;;;16.20;99.90;;;;;;5045512;28;20021;-68